Terminal Aerodrome Forecast
Issued by NWS

Home | Current Version | Previous Version | Text Only | Print | Product List | Glossary On
Versions: 1 2 3 4 5 6 7 8 9 10 11 12 13 14 15 16
306
FTUS41 KBTV 231837 AAA
TAFMSS
TAF AMD
KMSS 231837Z 2319/2418 28010G18KT P6SM VCTS SCT045CB BKN080
      TEMPO 2319/2320 4SM -SHRA BR BKN035
     FM232200 32008KT P6SM SCT035 BKN120
     FM240200 33004KT P6SM SKC
     FM241300 26005KT P6SM SKC=

USA.gov is the U.S. government's official web portal to all federal, state and local government web resources and services.